sensor_id;sensor_type;location;lat;lon;timestamp;pressure;altitude;pressure_sealevel;temperature;humidity
38780;BME280;29273;49.962;9.768;2022-09-27T00:00:39;97887.53;;;14.15;62.46
38780;BME280;29273;49.962;9.768;2022-09-27T00:03:11;97886.22;;;14.17;62.20
38780;BME280;29273;49.962;9.768;2022-09-27T00:05:37;97892.63;;;14.11;62.81
38780;BME280;29273;49.962;9.768;2022-09-27T00:08:03;97884.91;;;14.10;62.49
38780;BME280;29273;49.962;9.768;2022-09-27T00:10:30;97881.19;;;14.11;62.60
38780;BME280;29273;49.962;9.768;2022-09-27T00:12:56;97881.97;;;14.11;62.43
38780;BME280;29273;49.962;9.768;2022-09-27T00:15:22;97876.41;;;14.07;62.79
38780;BME280;29273;49.962;9.768;2022-09-27T00:17:48;97867.88;;;14.05;62.82
38780;BME280;29273;49.962;9.768;2022-09-27T00:20:17;97863.34;;;14.06;62.72
38780;BME280;29273;49.962;9.768;2022-09-27T00:22:42;97870.00;;;14.03;62.51
38780;BME280;29273;49.962;9.768;2022-09-27T00:25:08;97855.13;;;14.02;62.75
38780;BME280;29273;49.962;9.768;2022-09-27T00:27:33;97859.63;;;14.02;62.84
38780;BME280;29273;49.962;9.768;2022-09-27T00:29:59;97862.28;;;14.02;62.81
38780;BME280;29273;49.962;9.768;2022-09-27T00:32:24;97852.72;;;14.01;63.09
38780;BME280;29273;49.962;9.768;2022-09-27T00:34:50;97853.00;;;13.99;62.62
38780;BME280;29273;49.962;9.768;2022-09-27T00:37:15;97849.53;;;13.99;62.83
38780;BME280;29273;49.962;9.768;2022-09-27T00:39:41;97839.97;;;13.98;62.53
38780;BME280;29273;49.962;9.768;2022-09-27T00:42:10;97842.88;;;14.01;62.22
38780;BME280;29273;49.962;9.768;2022-09-27T00:47:13;97835.44;;;13.98;61.99
38780;BME280;29273;49.962;9.768;2022-09-27T00:50:04;97836.78;;;13.96;62.23
38780;BME280;29273;49.962;9.768;2022-09-27T00:52:43;97829.06;;;13.94;62.12
38780;BME280;29273;49.962;9.768;2022-09-27T00:55:15;97831.19;;;13.92;62.38
38780;BME280;29273;49.962;9.768;2022-09-27T00:57:43;97827.22;;;13.90;62.78
38780;BME280;29273;49.962;9.768;2022-09-27T01:00:11;97821.09;;;13.89;62.88
38780;BME280;29273;49.962;9.768;2022-09-27T01:02:39;97821.38;;;13.87;63.10
38780;BME280;29273;49.962;9.768;2022-09-27T01:05:07;97824.81;;;13.88;62.80
38780;BME280;29273;49.962;9.768;2022-09-27T01:07:34;97813.66;;;13.86;62.99
38780;BME280;29273;49.962;9.768;2022-09-27T01:10:00;97808.34;;;13.86;63.18
38780;BME280;29273;49.962;9.768;2022-09-27T01:12:44;97804.06;;;13.90;62.28
38780;BME280;29273;49.962;9.768;2022-09-27T01:20:44;97792.91;;;13.88;63.51
38780;BME280;29273;49.962;9.768;2022-09-27T01:28:56;97800.06;;;13.93;62.90
38780;BME280;29273;49.962;9.768;2022-09-27T01:31:35;97796.59;;;13.92;62.59
38780;BME280;29273;49.962;9.768;2022-09-27T01:37:07;97796.34;;;13.88;63.81
38780;BME280;29273;49.962;9.768;2022-09-27T01:40:08;97790.75;;;13.90;63.09
38780;BME280;29273;49.962;9.768;2022-09-27T01:42:59;97795.03;;;13.91;63.20
38780;BME280;29273;49.962;9.768;2022-09-27T01:45:38;97784.41;;;13.86;63.69
38780;BME280;29273;49.962;9.768;2022-09-27T01:48:21;97788.59;;;13.92;62.58
38780;BME280;29273;49.962;9.768;2022-09-27T01:51:07;97790.25;;;13.88;62.67
38780;BME280;29273;49.962;9.768;2022-09-27T01:53:46;97788.91;;;13.91;63.12
38780;BME280;29273;49.962;9.768;2022-09-27T01:56:51;97788.63;;;13.87;63.00
38780;BME280;29273;49.962;9.768;2022-09-27T01:59:35;97791.56;;;13.91;63.59
38780;BME280;29273;49.962;9.768;2022-09-27T02:02:16;97790.25;;;13.88;63.74
38780;BME280;29273;49.962;9.768;2022-09-27T02:05:04;97784.91;;;13.88;63.70
38780;BME280;29273;49.962;9.768;2022-09-27T02:07:55;97785.97;;;13.87;62.85
38780;BME280;29273;49.962;9.768;2022-09-27T02:10:25;97791.84;;;13.89;63.60
38780;BME280;29273;49.962;9.768;2022-09-27T02:12:59;97784.66;;;13.90;63.73
38780;BME280;29273;49.962;9.768;2022-09-27T02:15:29;97781.19;;;13.89;63.33
38780;BME280;29273;49.962;9.768;2022-09-27T02:18:24;97775.88;;;13.89;63.18
38780;BME280;29273;49.962;9.768;2022-09-27T02:20:55;97776.41;;;13.86;63.49
38780;BME280;29273;49.962;9.768;2022-09-27T02:23:49;97776.41;;;13.86;63.14
38780;BME280;29273;49.962;9.768;2022-09-27T02:26:23;97772.41;;;13.83;63.23
38780;BME280;29273;49.962;9.768;2022-09-27T02:29:04;97778.84;;;13.77;63.68
38780;BME280;29273;49.962;9.768;2022-09-27T02:31:39;97774.59;;;13.76;64.12
38780;BME280;29273;49.962;9.768;2022-09-27T02:34:10;97770.84;;;13.82;63.41
38780;BME280;29273;49.962;9.768;2022-09-27T02:36:38;97770.13;;;13.61;63.53
38780;BME280;29273;49.962;9.768;2022-09-27T02:39:04;97771.41;;;13.74;64.07
38780;BME280;29273;49.962;9.768;2022-09-27T02:41:31;97776.47;;;13.76;63.95
38780;BME280;29273;49.962;9.768;2022-09-27T02:44:04;97772.69;;;13.82;63.49
38780;BME280;29273;49.962;9.768;2022-09-27T02:47:01;97777.75;;;13.78;62.98
38780;BME280;29273;49.962;9.768;2022-09-27T02:49:47;97783.34;;;13.82;63.08
38780;BME280;29273;49.962;9.768;2022-09-27T02:53:03;97778.84;;;13.82;63.01
38780;BME280;29273;49.962;9.768;2022-09-27T02:59:22;97780.41;;;13.83;63.07
38780;BME280;29273;49.962;9.768;2022-09-27T03:02:31;97778.25;;;13.85;63.30
38780;BME280;29273;49.962;9.768;2022-09-27T03:05:24;97782.53;;;13.86;63.43
38780;BME280;29273;49.962;9.768;2022-09-27T03:07:50;97775.63;;;13.80;64.26
38780;BME280;29273;49.962;9.768;2022-09-27T03:10:22;97776.66;;;13.90;63.51
38780;BME280;29273;49.962;9.768;2022-09-27T03:12:48;97770.28;;;13.85;64.08
38780;BME280;29273;49.962;9.768;2022-09-27T03:15:15;97783.03;;;13.88;64.13
38780;BME280;29273;49.962;9.768;2022-09-27T03:17:58;97776.94;;;13.88;64.15
38780;BME280;29273;49.962;9.768;2022-09-27T03:20:24;97776.41;;;13.91;63.91
38780;BME280;29273;49.962;9.768;2022-09-27T03:23:08;97784.09;;;13.93;63.86
38780;BME280;29273;49.962;9.768;2022-09-27T03:25:34;97780.63;;;13.92;63.02
38780;BME280;29273;49.962;9.768;2022-09-27T03:27:59;97773.97;;;13.95;62.96
38780;BME280;29273;49.962;9.768;2022-09-27T03:30:25;97781.16;;;13.94;62.77
38780;BME280;29273;49.962;9.768;2022-09-27T03:32:50;97780.91;;;13.96;63.37
38780;BME280;29273;49.962;9.768;2022-09-27T03:35:35;97773.19;;;13.94;63.19
38780;BME280;29273;49.962;9.768;2022-09-27T03:38:02;97777.97;;;13.97;63.30
38780;BME280;29273;49.962;9.768;2022-09-27T03:40:28;97777.97;;;13.97;63.14
38780;BME280;29273;49.962;9.768;2022-09-27T03:42:54;97772.91;;;13.96;63.16
38780;BME280;29273;49.962;9.768;2022-09-27T03:45:20;97775.56;;;13.96;62.68
38780;BME280;29273;49.962;9.768;2022-09-27T03:47:45;97765.22;;;13.94;63.00
38780;BME280;29273;49.962;9.768;2022-09-27T03:50:13;97772.91;;;13.96;62.32
38780;BME280;29273;49.962;9.768;2022-09-27T03:52:39;97775.03;;;13.94;62.89
38780;BME280;29273;49.962;9.768;2022-09-27T03:55:05;97768.13;;;13.93;63.02
38780;BME280;29273;49.962;9.768;2022-09-27T03:57:30;97781.72;;;13.91;63.03
38780;BME280;29273;49.962;9.768;2022-09-27T03:59:57;97770.53;;;13.94;63.15
38780;BME280;29273;49.962;9.768;2022-09-27T04:02:39;97781.72;;;13.91;63.18
38780;BME280;29273;49.962;9.768;2022-09-27T04:05:20;97777.19;;;13.92;63.26
38780;BME280;29273;49.962;9.768;2022-09-27T04:07:47;97775.84;;;13.94;63.10
38780;BME280;29273;49.962;9.768;2022-09-27T04:10:15;97768.13;;;13.93;63.04
38780;BME280;29273;49.962;9.768;2022-09-27T04:12:41;97776.13;;;13.93;62.92
38780;BME280;29273;49.962;9.768;2022-09-27T04:15:07;97776.41;;;13.91;63.03
38780;BME280;29273;49.962;9.768;2022-09-27T04:17:53;97775.59;;;13.91;63.34
38780;BME280;29273;49.962;9.768;2022-09-27T04:20:31;97774.00;;;13.90;63.00
38780;BME280;29273;49.962;9.768;2022-09-27T04:22:58;97764.41;;;13.88;62.83
38780;BME280;29273;49.962;9.768;2022-09-27T04:25:23;97770.00;;;13.87;62.64
38780;BME280;29273;49.962;9.768;2022-09-27T04:27:49;97775.31;;;13.87;62.90
38780;BME280;29273;49.962;9.768;2022-09-27T04:30:21;97774.28;;;13.88;63.26
38780;BME280;29273;49.962;9.768;2022-09-27T04:33:02;97782.00;;;13.84;63.18
38780;BME280;29273;49.962;9.768;2022-09-27T04:35:46;97782.00;;;13.84;63.25
38780;BME280;29273;49.962;9.768;2022-09-27T04:38:32;97790.00;;;13.84;62.99
38780;BME280;29273;49.962;9.768;2022-09-27T04:40:59;97787.31;;;13.84;63.19
38780;BME280;29273;49.962;9.768;2022-09-27T04:43:27;97796.09;;;13.85;63.20
38780;BME280;29273;49.962;9.768;2022-09-27T04:45:53;97791.88;;;13.84;63.08
38780;BME280;29273;49.962;9.768;2022-09-27T04:48:19;97790.00;;;13.84;62.91
38780;BME280;29273;49.962;9.768;2022-09-27T04:50:45;97800.63;;;13.84;62.90
38780;BME280;29273;49.962;9.768;2022-09-27T04:53:14;97798.22;;;13.88;62.34
38780;BME280;29273;49.962;9.768;2022-09-27T04:55:45;97794.50;;;13.89;62.45
38780;BME280;29273;49.962;9.768;2022-09-27T04:58:11;97800.13;;;13.82;63.05
38780;BME280;29273;49.962;9.768;2022-09-27T05:00:37;97809.16;;;13.81;62.36
38780;BME280;29273;49.962;9.768;2022-09-27T05:03:22;97803.56;;;13.83;62.44
38780;BME280;29273;49.962;9.768;2022-09-27T05:05:54;97812.88;;;13.80;62.90
38780;BME280;29273;49.962;9.768;2022-09-27T05:08:19;97816.06;;;13.82;63.08
38780;BME280;29273;49.962;9.768;2022-09-27T05:11:11;97820.34;;;13.78;62.67
38780;BME280;29273;49.962;9.768;2022-09-27T05:13:37;97814.75;;;13.80;63.03
38780;BME280;29273;49.962;9.768;2022-09-27T05:16:04;97834.16;;;13.80;62.45
38780;BME280;29273;49.962;9.768;2022-09-27T05:18:55;97829.41;;;13.77;62.12
38780;BME280;29273;49.962;9.768;2022-09-27T05:21:44;97845.88;;;13.79;62.51
38780;BME280;29273;49.962;9.768;2022-09-27T05:24:10;97844.78;;;13.80;62.76
38780;BME280;29273;49.962;9.768;2022-09-27T05:26:35;97851.19;;;13.79;61.88
38780;BME280;29273;49.962;9.768;2022-09-27T05:29:02;97871.41;;;13.80;61.75
38780;BME280;29273;49.962;9.768;2022-09-27T05:31:30;97855.44;;;13.75;61.49
38780;BME280;29273;49.962;9.768;2022-09-27T05:33:56;97867.19;;;13.74;61.28
38780;BME280;29273;49.962;9.768;2022-09-27T05:36:33;97889.50;;;13.73;61.18
38780;BME280;29273;49.962;9.768;2022-09-27T05:38:59;97877.56;;;13.71;60.97
38780;BME280;29273;49.962;9.768;2022-09-27T05:41:25;97882.06;;;13.70;61.02
38780;BME280;29273;49.962;9.768;2022-09-27T05:43:50;97879.16;;;13.66;61.50
38780;BME280;29273;49.962;9.768;2022-09-27T05:46:16;97882.88;;;13.65;61.49
38780;BME280;29273;49.962;9.768;2022-09-27T05:48:45;97886.59;;;13.64;61.68
38780;BME280;29273;49.962;9.768;2022-09-27T05:51:11;97891.13;;;13.64;61.21
38780;BME280;29273;49.962;9.768;2022-09-27T05:53:39;97895.91;;;13.62;60.79
38780;BME280;29273;49.962;9.768;2022-09-27T05:56:10;97908.94;;;13.58;60.87
38780;BME280;29273;49.962;9.768;2022-09-27T05:58:54;97907.06;;;13.59;61.14
38780;BME280;29273;49.962;9.768;2022-09-27T06:01:21;97915.06;;;13.59;61.09
38780;BME280;29273;49.962;9.768;2022-09-27T06:04:06;97918.28;;;13.56;61.10
38780;BME280;29273;49.962;9.768;2022-09-27T06:06:35;97918.81;;;13.58;61.28
38780;BME280;29273;49.962;9.768;2022-09-27T06:09:02;97919.06;;;13.56;60.99
38780;BME280;29273;49.962;9.768;2022-09-27T06:11:27;97922.78;;;13.55;60.79
38780;BME280;29273;49.962;9.768;2022-09-27T06:13:53;97920.13;;;13.55;61.00
38780;BME280;29273;49.962;9.768;2022-09-27T06:16:18;97917.97;;;13.57;61.83
38780;BME280;29273;49.962;9.768;2022-09-27T06:18:44;97914.28;;;13.58;62.45
38780;BME280;29273;49.962;9.768;2022-09-27T06:21:10;97925.16;;;13.62;61.38
38780;BME280;29273;49.962;9.768;2022-09-27T06:23:36;97931.81;;;13.64;61.15
38780;BME280;29273;49.962;9.768;2022-09-27T06:26:16;97934.22;;;13.66;60.93
38780;BME280;29273;49.962;9.768;2022-09-27T06:28:57;97945.13;;;13.69;60.72
38780;BME280;29273;49.962;9.768;2022-09-27T06:31:23;97944.88;;;13.66;60.56
38780;BME280;29273;49.962;9.768;2022-09-27T06:34:01;97948.31;;;13.66;60.77
38780;BME280;29273;49.962;9.768;2022-09-27T06:36:28;97953.38;;;13.68;60.90
38780;BME280;29273;49.962;9.768;2022-09-27T06:38:53;97958.44;;;13.64;60.57
38780;BME280;29273;49.962;9.768;2022-09-27T06:41:23;97961.34;;;13.63;60.39
38780;BME280;29273;49.962;9.768;2022-09-27T06:43:52;97961.63;;;13.61;60.36
38780;BME280;29273;49.962;9.768;2022-09-27T06:46:37;97965.59;;;13.59;60.80
38780;BME280;29273;49.962;9.768;2022-09-27T06:49:10;97967.47;;;13.58;60.35
38780;BME280;29273;49.962;9.768;2022-09-27T06:51:37;97973.56;;;13.54;60.17
38780;BME280;29273;49.962;9.768;2022-09-27T06:54:02;97985.81;;;13.55;59.88
38780;BME280;29273;49.962;9.768;2022-09-27T06:56:28;97990.59;;;13.53;60.34
38780;BME280;29273;49.962;9.768;2022-09-27T06:58:53;97986.59;;;13.50;59.66
38780;BME280;29273;49.962;9.768;2022-09-27T07:01:40;97986.88;;;13.48;60.67
38780;BME280;29273;49.962;9.768;2022-09-27T07:04:10;98004.97;;;13.51;60.83
38780;BME280;29273;49.962;9.768;2022-09-27T07:06:49;98002.03;;;13.48;61.98
38780;BME280;29273;49.962;9.768;2022-09-27T07:09:20;98008.13;;;13.48;62.47
38780;BME280;29273;49.962;9.768;2022-09-27T07:11:46;98006.81;;;13.51;61.63
38780;BME280;29273;49.962;9.768;2022-09-27T07:14:12;98008.41;;;13.52;61.11
38780;BME280;29273;49.962;9.768;2022-09-27T07:16:38;98011.06;;;13.52;60.77
38780;BME280;29273;49.962;9.768;2022-09-27T07:19:03;98008.41;;;13.52;59.55
38780;BME280;29273;49.962;9.768;2022-09-27T07:21:32;98025.44;;;13.56;60.52
38780;BME280;29273;49.962;9.768;2022-09-27T07:23:58;98022.53;;;13.58;60.45
38780;BME280;29273;49.962;9.768;2022-09-27T07:26:24;98025.72;;;13.60;60.39
38780;BME280;29273;49.962;9.768;2022-09-27T07:28:49;98025.97;;;13.63;61.02
38780;BME280;29273;49.962;9.768;2022-09-27T07:31:17;98028.63;;;13.68;60.60
38780;BME280;29273;49.962;9.768;2022-09-27T07:33:42;98031.84;;;13.71;60.30
38780;BME280;29273;49.962;9.768;2022-09-27T07:36:09;98027.06;;;13.73;59.97
38780;BME280;29273;49.962;9.768;2022-09-27T07:38:38;98035.56;;;13.75;60.17
38780;BME280;29273;49.962;9.768;2022-09-27T07:41:05;98037.69;;;13.83;60.46
38780;BME280;29273;49.962;9.768;2022-09-27T07:43:31;98036.09;;;13.87;61.16
38780;BME280;29273;49.962;9.768;2022-09-27T07:45:57;98036.91;;;13.93;60.33
38780;BME280;29273;49.962;9.768;2022-09-27T07:48:36;98045.66;;;13.98;60.07
38780;BME280;29273;49.962;9.768;2022-09-27T07:51:17;98046.47;;;14.04;60.18
38780;BME280;29273;49.962;9.768;2022-09-27T07:53:46;98055.50;;;14.08;60.24
38780;BME280;29273;49.962;9.768;2022-09-27T07:56:33;98050.19;;;14.08;59.04
38780;BME280;29273;49.962;9.768;2022-09-27T07:58:59;98056.31;;;14.09;59.01
38780;BME280;29273;49.962;9.768;2022-09-27T08:01:24;98057.38;;;14.13;59.14
38780;BME280;29273;49.962;9.768;2022-09-27T08:03:50;98065.09;;;14.14;59.08
38780;BME280;29273;49.962;9.768;2022-09-27T08:06:16;98063.75;;;14.12;59.49
38780;BME280;29273;49.962;9.768;2022-09-27T08:08:43;98074.66;;;14.10;58.82
38780;BME280;29273;49.962;9.768;2022-09-27T08:11:14;98072.56;;;14.17;59.14
38780;BME280;29273;49.962;9.768;2022-09-27T08:13:41;98078.94;;;14.11;59.26
38780;BME280;29273;49.962;9.768;2022-09-27T08:16:07;98082.41;;;14.12;59.41
38780;BME280;29273;49.962;9.768;2022-09-27T08:18:53;98085.06;;;14.12;59.09
38780;BME280;29273;49.962;9.768;2022-09-27T08:21:37;98085.31;;;14.10;59.06
38780;BME280;29273;49.962;9.768;2022-09-27T08:24:11;98091.19;;;14.12;58.82
38780;BME280;29273;49.962;9.768;2022-09-27T08:26:55;98087.44;;;14.13;58.72
38780;BME280;29273;49.962;9.768;2022-09-27T08:29:39;98089.59;;;14.11;59.26
38780;BME280;29273;49.962;9.768;2022-09-27T08:32:09;98095.97;;;14.15;59.61
38780;BME280;29273;49.962;9.768;2022-09-27T08:34:35;98105.56;;;14.11;59.55
38780;BME280;29273;49.962;9.768;2022-09-27T08:37:02;98112.50;;;14.12;59.42
38780;BME280;29273;49.962;9.768;2022-09-27T08:39:28;98119.66;;;14.12;59.68
38780;BME280;29273;49.962;9.768;2022-09-27T08:44:58;98116.47;;;14.20;60.46
38780;BME280;29273;49.962;9.768;2022-09-27T08:47:40;98123.66;;;14.19;60.20
38780;BME280;29273;49.962;9.768;2022-09-27T08:50:43;98124.47;;;14.15;60.35
38780;BME280;29273;49.962;9.768;2022-09-27T08:53:42;98124.47;;;14.15;59.79
38780;BME280;29273;49.962;9.768;2022-09-27T08:56:12;98126.59;;;14.18;59.51
38780;BME280;29273;49.962;9.768;2022-09-27T08:58:50;98131.13;;;14.22;59.87
38780;BME280;29273;49.962;9.768;2022-09-27T09:01:22;98132.72;;;14.18;59.81
38780;BME280;29273;49.962;9.768;2022-09-27T09:03:58;98133.53;;;14.24;60.59
38780;BME280;29273;49.962;9.768;2022-09-27T09:06:42;98139.09;;;14.28;60.51
38780;BME280;29273;49.962;9.768;2022-09-27T09:09:30;98142.03;;;14.31;61.00
38780;BME280;29273;49.962;9.768;2022-09-27T09:12:31;98147.09;;;14.38;60.12
38780;BME280;29273;49.962;9.768;2022-09-27T09:15:34;98146.56;;;14.36;58.74
38780;BME280;29273;49.962;9.768;2022-09-27T09:21:32;98160.66;;;14.47;59.48
38780;BME280;29273;49.962;9.768;2022-09-27T09:24:21;98155.06;;;14.53;59.34
38780;BME280;29273;49.962;9.768;2022-09-27T09:26:58;98155.88;;;14.54;58.34
38780;BME280;29273;49.962;9.768;2022-09-27T09:32:24;98160.16;;;14.60;58.11
38780;BME280;29273;49.962;9.768;2022-09-27T09:34:57;98162.81;;;14.65;58.06
38780;BME280;29273;49.962;9.768;2022-09-27T09:37:55;98157.75;;;14.64;59.14
38780;BME280;29273;49.962;9.768;2022-09-27T09:40:32;98161.22;;;14.74;58.46
38780;BME280;29273;49.962;9.768;2022-09-27T09:43:14;98169.97;;;14.80;58.66
38780;BME280;29273;49.962;9.768;2022-09-27T09:45:45;98164.63;;;14.85;58.14
38780;BME280;29273;49.962;9.768;2022-09-27T09:50:59;98172.34;;;14.92;56.37
38780;BME280;29273;49.962;9.768;2022-09-27T09:53:38;98159.28;;;15.01;56.76
38780;BME280;29273;49.962;9.768;2022-09-27T09:58:54;98164.34;;;14.97;53.84
38780;BME280;29273;49.962;9.768;2022-09-27T10:01:29;98170.22;;;14.99;55.44
38780;BME280;29273;49.962;9.768;2022-09-27T10:03:58;98174.50;;;14.95;54.65
38780;BME280;29273;49.962;9.768;2022-09-27T10:06:24;98177.97;;;15.01;55.09
38780;BME280;29273;49.962;9.768;2022-09-27T10:08:51;98167.81;;;15.03;55.74
38780;BME280;29273;49.962;9.768;2022-09-27T10:11:43;98165.91;;;15.08;56.38
38780;BME280;29273;49.962;9.768;2022-09-27T10:14:17;98163.78;;;15.05;54.92
38780;BME280;29273;49.962;9.768;2022-09-27T10:16:46;98165.91;;;15.08;54.19
38780;BME280;29273;49.962;9.768;2022-09-27T10:19:20;98163.25;;;15.08;53.96
38780;BME280;29273;49.962;9.768;2022-09-27T10:21:51;98165.94;;;14.98;53.06
38780;BME280;29273;49.962;9.768;2022-09-27T10:24:17;98170.22;;;14.99;54.27
38780;BME280;29273;49.962;9.768;2022-09-27T10:26:58;98170.50;;;14.97;53.24
38780;BME280;29273;49.962;9.768;2022-09-27T10:29:32;98164.91;;;14.99;54.63
38780;BME280;29273;49.962;9.768;2022-09-27T10:32:01;98165.19;;;14.92;53.28
38780;BME280;29273;49.962;9.768;2022-09-27T10:34:41;98168.63;;;14.93;54.96
38780;BME280;29273;49.962;9.768;2022-09-27T10:39:37;98160.13;;;14.91;54.99
38780;BME280;29273;49.962;9.768;2022-09-27T10:44:45;98151.00;;;14.97;54.05
38780;BME280;29273;49.962;9.768;2022-09-27T10:47:21;98151.81;;;15.03;54.80
38780;BME280;29273;49.962;9.768;2022-09-27T10:50:15;98150.19;;;15.07;54.80
38780;BME280;29273;49.962;9.768;2022-09-27T10:53:06;98143.25;;;15.11;53.54
38780;BME280;29273;49.962;9.768;2022-09-27T10:55:36;98142.72;;;15.04;52.86
38780;BME280;29273;49.962;9.768;2022-09-27T10:58:04;98143.81;;;15.08;52.62
38780;BME280;29273;49.962;9.768;2022-09-27T11:00:33;98130.72;;;15.11;53.69
38780;BME280;29273;49.962;9.768;2022-09-27T11:03:05;98138.19;;;15.14;54.36
38780;BME280;29273;49.962;9.768;2022-09-27T11:05:36;98138.69;;;15.16;55.05
38780;BME280;29273;49.962;9.768;2022-09-27T11:11:17;98126.41;;;15.26;54.80
38780;BME280;29273;49.962;9.768;2022-09-27T11:14:03;98116.47;;;15.36;55.08
38780;BME280;29273;49.962;9.768;2022-09-27T11:17:29;98116.69;;;15.45;55.78
38780;BME280;29273;49.962;9.768;2022-09-27T11:19:51;98125.50;;;15.51;53.61
38780;BME280;29273;49.962;9.768;2022-09-27T11:22:45;98124.94;;;15.54;53.81
38780;BME280;29273;49.962;9.768;2022-09-27T11:25:39;98124.38;;;15.62;54.56
38780;BME280;29273;49.962;9.768;2022-09-27T11:30:52;98125.41;;;15.66;51.66
38780;BME280;29273;49.962;9.768;2022-09-27T11:33:53;98132.03;;;15.74;52.75
38780;BME280;29273;49.962;9.768;2022-09-27T11:36:33;98126.19;;;15.67;51.68
38780;BME280;29273;49.962;9.768;2022-09-27T11:39:22;98122.41;;;15.73;54.12
38780;BME280;29273;49.962;9.768;2022-09-27T11:47:37;98131.81;;;15.60;54.97
38780;BME280;29273;49.962;9.768;2022-09-27T11:56:10;98141.56;;;15.35;54.45
38780;BME280;29273;49.962;9.768;2022-09-27T11:59:22;98139.47;;;15.27;54.80
38780;BME280;29273;49.962;9.768;2022-09-27T12:10:36;98139.78;;;15.15;57.79
38780;BME280;29273;49.962;9.768;2022-09-27T12:13:04;98139.78;;;15.10;57.30
38780;BME280;29273;49.962;9.768;2022-09-27T12:15:38;98145.13;;;15.15;55.34
38780;BME280;29273;49.962;9.768;2022-09-27T12:18:13;98140.84;;;15.14;54.51
38780;BME280;29273;49.962;9.768;2022-09-27T12:20:42;98141.13;;;15.13;54.43
38780;BME280;29273;49.962;9.768;2022-09-27T12:26:06;98140.88;;;15.09;54.89
38780;BME280;29273;49.962;9.768;2022-09-27T12:28:35;98131.53;;;15.07;55.31
38780;BME280;29273;49.962;9.768;2022-09-27T12:36:40;98124.31;;;15.17;56.33
38780;BME280;29273;49.962;9.768;2022-09-27T12:39:17;98128.56;;;15.18;55.10
38780;BME280;29273;49.962;9.768;2022-09-27T12:41:52;98125.06;;;15.23;56.58
38780;BME280;29273;49.962;9.768;2022-09-27T12:44:37;98123.72;;;15.31;56.65
38780;BME280;29273;49.962;9.768;2022-09-27T12:47:12;98113.03;;;15.36;56.35
38780;BME280;29273;49.962;9.768;2022-09-27T12:50:02;98104.22;;;15.35;55.36
38780;BME280;29273;49.962;9.768;2022-09-27T12:52:32;98111.38;;;15.50;56.49
38780;BME280;29273;49.962;9.768;2022-09-27T13:00:49;98102.94;;;15.72;56.33
38780;BME280;29273;49.962;9.768;2022-09-27T13:08:57;98102.03;;;15.93;56.33
38780;BME280;29273;49.962;9.768;2022-09-27T13:11:45;98100.94;;;15.99;55.82
38780;BME280;29273;49.962;9.768;2022-09-27T13:14:20;98092.88;;;16.04;55.60
38780;BME280;29273;49.962;9.768;2022-09-27T13:16:48;98091.56;;;16.01;53.34
38780;BME280;29273;49.962;9.768;2022-09-27T13:22:03;98097.94;;;16.05;53.78
38780;BME280;29273;49.962;9.768;2022-09-27T13:24:44;98105.66;;;16.07;54.17
38780;BME280;29273;49.962;9.768;2022-09-27T13:27:36;98101.38;;;16.11;53.60
38780;BME280;29273;49.962;9.768;2022-09-27T13:32:32;98102.25;;;16.01;52.92
38780;BME280;29273;49.962;9.768;2022-09-27T13:35:23;98099.25;;;16.08;54.07
38780;BME280;29273;49.962;9.768;2022-09-27T13:37:59;98100.63;;;16.05;53.95
38780;BME280;29273;49.962;9.768;2022-09-27T13:46:14;98097.97;;;16.00;54.66
38780;BME280;29273;49.962;9.768;2022-09-27T13:48:55;98088.88;;;16.01;53.77
38780;BME280;29273;49.962;9.768;2022-09-27T13:51:40;98088.88;;;16.01;53.49
38780;BME280;29273;49.962;9.768;2022-09-27T13:57:00;98092.94;;;15.94;53.52
38780;BME280;29273;49.962;9.768;2022-09-27T13:59:44;98097.19;;;16.00;54.81
38780;BME280;29273;49.962;9.768;2022-09-27T14:02:41;98094.22;;;16.01;55.02
38780;BME280;29273;49.962;9.768;2022-09-27T14:05:12;98088.38;;;15.99;53.86
38780;BME280;29273;49.962;9.768;2022-09-27T14:07:43;98099.06;;;15.99;53.47
38780;BME280;29273;49.962;9.768;2022-09-27T14:10:16;98095.84;;;16.02;54.12
38780;BME280;29273;49.962;9.768;2022-09-27T14:12:45;98090.53;;;15.97;52.94
38780;BME280;29273;49.962;9.768;2022-09-27T14:15:26;98094.75;;;16.03;54.03
38780;BME280;29273;49.962;9.768;2022-09-27T14:17:53;98091.03;;;15.99;52.81
38780;BME280;29273;49.962;9.768;2022-09-27T14:20:38;98093.94;;;16.03;53.36
38780;BME280;29273;49.962;9.768;2022-09-27T14:23:20;98099.06;;;15.99;52.77
38780;BME280;29273;49.962;9.768;2022-09-27T14:25:50;98100.41;;;15.97;52.95
38780;BME280;29273;49.962;9.768;2022-09-27T14:28:24;98097.44;;;15.98;53.14
38780;BME280;29273;49.962;9.768;2022-09-27T14:31:16;98102.28;;;15.96;53.33
38780;BME280;29273;49.962;9.768;2022-09-27T14:34:05;98097.22;;;15.95;52.98
38780;BME280;29273;49.962;9.768;2022-09-27T14:36:33;98098.31;;;15.88;52.20
38780;BME280;29273;49.962;9.768;2022-09-27T14:39:25;98098.31;;;15.88;52.03
38780;BME280;29273;49.962;9.768;2022-09-27T14:41:56;98101.31;;;15.82;50.78
38780;BME280;29273;49.962;9.768;2022-09-27T14:44:21;98096.53;;;15.79;51.24
38780;BME280;29273;49.962;9.768;2022-09-27T14:47:06;98106.13;;;15.80;52.49
38780;BME280;29273;49.962;9.768;2022-09-27T14:49:32;98101.06;;;15.73;52.19
38780;BME280;29273;49.962;9.768;2022-09-27T14:51:57;98104.81;;;15.72;52.20
38780;BME280;29273;49.962;9.768;2022-09-27T14:54:26;98103.22;;;15.76;52.92
38780;BME280;29273;49.962;9.768;2022-09-27T14:56:53;98109.34;;;15.71;53.10
38780;BME280;29273;49.962;9.768;2022-09-27T14:59:32;98106.91;;;15.75;52.69
38780;BME280;29273;49.962;9.768;2022-09-27T15:02:02;98104.53;;;15.73;51.80
38780;BME280;29273;49.962;9.768;2022-09-27T15:04:33;98105.66;;;15.67;52.14
38780;BME280;29273;49.962;9.768;2022-09-27T15:07:01;98097.38;;;15.69;52.12
38780;BME280;29273;49.962;9.768;2022-09-27T15:09:27;98097.09;;;15.65;52.75
38780;BME280;29273;49.962;9.768;2022-09-27T15:11:57;98096.56;;;15.68;52.12
38780;BME280;29273;49.962;9.768;2022-09-27T15:14:27;98096.31;;;15.65;51.22
38780;BME280;29273;49.962;9.768;2022-09-27T15:16:57;98093.13;;;15.63;51.17